Time;durP1;ratioP1;P1;durP2;ratioP2;P2;SDS_P1;SDS_P2;PMS_P1;PMS_P2;Temp;Humidity;BMP_temperature;BMP_pressure;BME280_temperature;BME280_humidity;BME280_pressure;Samples;Min_cycle;Max_cycle;Signal;HPM_P1;HPM_P2
2022/02/28 00:01:01;;;;;;;10.40;9.00;;;0.30;99.90;;;;;;5045822;28;20471;-65
2022/02/28 00:03:29;;;;;;;11.77;8.27;;;0.10;99.90;;;;;;5045774;28;21268;-64
2022/02/28 00:05:56;;;;;;;11.10;9.40;;;0.00;99.90;;;;;;5045002;28;21072;-65
2022/02/28 00:08:23;;;;;;;9.50;8.00;;;0.00;99.90;;;;;;5045279;28;20446;-65
2022/02/28 00:10:49;;;;;;;13.03;8.03;;;-0.10;99.90;;;;;;5045342;28;20463;-64
2022/02/28 00:13:17;;;;;;;9.83;7.97;;;-0.20;99.90;;;;;;5045322;28;20535;-65
2022/02/28 00:15:44;;;;;;;11.67;9.20;;;-0.30;99.90;;;;;;5045407;28;20436;-64
2022/02/28 00:18:10;;;;;;;10.03;7.93;;;-0.30;99.90;;;;;;5044907;28;20452;-65
2022/02/28 00:20:39;;;;;;;9.27;7.43;;;-0.30;99.90;;;;;;5046082;28;20470;-64
2022/02/28 00:23:08;;;;;;;12.10;8.57;;;-0.30;99.90;;;;;;5044997;28;21025;-65
2022/02/28 00:25:35;;;;;;;11.57;8.47;;;-0.40;99.90;;;;;;5045088;28;21005;-65
2022/02/28 00:28:03;;;;;;;12.70;8.53;;;-0.50;99.90;;;;;;5045134;28;20458;-65
2022/02/28 00:30:29;;;;;;;13.30;8.60;;;-0.60;99.90;;;;;;5045474;28;20977;-65
2022/02/28 00:32:56;;;;;;;12.27;8.03;;;-0.60;99.90;;;;;;5045110;28;20532;-65
2022/02/28 00:35:23;;;;;;;12.03;8.57;;;-0.60;99.90;;;;;;5044488;28;20428;-65
2022/02/28 00:37:51;;;;;;;11.17;8.00;;;-0.70;99.90;;;;;;5045411;28;20819;-65
2022/02/28 00:40:18;;;;;;;10.93;8.40;;;-0.70;99.90;;;;;;5045338;28;20478;-65
2022/02/28 00:42:45;;;;;;;12.33;8.17;;;-0.80;99.90;;;;;;5045125;28;20440;-66
2022/02/28 00:45:12;;;;;;;12.33;9.30;;;-0.80;99.90;;;;;;5044858;28;20483;-65
2022/02/28 00:47:39;;;;;;;11.77;8.93;;;-1.00;99.90;;;;;;5045185;28;20544;-65
2022/02/28 00:50:09;;;;;;;14.00;9.47;;;-1.00;99.90;;;;;;5044594;28;20471;-65
2022/02/28 00:52:36;;;;;;;12.80;8.87;;;-1.10;99.90;;;;;;5045149;28;20547;-65
2022/02/28 00:55:06;;;;;;;13.80;8.80;;;-1.10;99.90;;;;;;5044175;28;20984;-64
2022/02/28 00:57:32;;;;;;;13.23;8.83;;;-1.10;99.90;;;;;;5045122;28;20513;-65
2022/02/28 00:59:59;;;;;;;10.57;8.17;;;-1.00;99.90;;;;;;5044301;28;20474;-65
2022/02/28 01:02:27;;;;;;;12.20;8.60;;;-1.00;99.90;;;;;;5048239;28;20801;-65
2022/02/28 01:04:53;;;;;;;14.97;8.97;;;-0.90;99.90;;;;;;5048535;28;20511;-65
2022/02/28 01:07:20;;;;;;;12.87;8.13;;;-0.90;99.90;;;;;;5042702;28;21251;-65
2022/02/28 01:09:47;;;;;;;13.47;9.93;;;-0.80;99.90;;;;;;5048458;28;21167;-65
2022/02/28 01:12:16;;;;;;;14.80;8.57;;;-0.70;99.90;;;;;;5047598;28;20999;-66
2022/02/28 01:14:43;;;;;;;12.90;8.30;;;-0.60;99.90;;;;;;5047557;28;20954;-65
2022/02/28 01:17:09;;;;;;;10.87;7.97;;;-0.50;99.90;;;;;;5047896;28;20474;-65
2022/02/28 01:19:36;;;;;;;12.37;8.90;;;-0.50;99.90;;;;;;5047949;28;20448;-65
2022/02/28 01:22:04;;;;;;;9.63;7.60;;;-0.50;99.90;;;;;;5048151;28;20848;-66
2022/02/28 01:24:31;;;;;;;10.03;7.43;;;-0.50;99.90;;;;;;5048211;28;20448;-65
2022/02/28 01:26:58;;;;;;;13.53;8.90;;;-0.70;99.90;;;;;;5048525;28;20483;-65
2022/02/28 01:29:26;;;;;;;10.83;9.53;;;-0.80;99.90;;;;;;5047800;28;20487;-65
2022/02/28 01:31:53;;;;;;;14.30;9.93;;;-0.90;99.90;;;;;;5048148;28;20495;-65
2022/02/28 01:34:20;;;;;;;13.50;9.87;;;-0.80;99.90;;;;;;5047420;28;20538;-65
2022/02/28 01:36:47;;;;;;;11.97;8.87;;;-0.80;99.90;;;;;;5041912;28;20446;-67
2022/02/28 01:39:14;;;;;;;14.33;9.23;;;-0.90;99.90;;;;;;5041228;28;20954;-65
2022/02/28 01:41:41;;;;;;;13.43;9.37;;;-1.00;99.90;;;;;;5047830;28;20973;-65
2022/02/28 01:44:09;;;;;;;16.50;10.50;;;-1.00;99.90;;;;;;5047719;28;20454;-66
2022/02/28 01:46:38;;;;;;;15.43;9.70;;;-1.00;99.90;;;;;;5048216;28;20490;-65
2022/02/28 01:49:05;;;;;;;14.50;9.60;;;-0.90;99.90;;;;;;5047995;28;20547;-65
2022/02/28 01:51:35;;;;;;;12.90;9.80;;;-1.00;99.90;;;;;;5041724;28;20494;-65
2022/02/28 01:54:01;;;;;;;12.80;9.90;;;-0.90;99.90;;;;;;5048126;28;20444;-66
2022/02/28 01:56:28;;;;;;;13.77;9.67;;;-1.00;99.90;;;;;;5047834;28;20443;-65
2022/02/28 01:58:55;;;;;;;13.87;9.60;;;-1.00;99.90;;;;;;5042465;28;20428;-65
2022/02/28 02:01:22;;;;;;;13.33;9.40;;;-1.00;99.90;;;;;;5041613;28;20486;-66
2022/02/28 02:03:50;;;;;;;17.73;9.93;;;-1.10;99.90;;;;;;5041642;28;20557;-65
2022/02/28 02:06:19;;;;;;;12.07;10.07;;;-1.10;99.90;;;;;;5042641;28;20476;-65
2022/02/28 02:08:46;;;;;;;16.00;9.60;;;-1.20;99.90;;;;;;5047844;28;20822;-65
2022/02/28 02:11:13;;;;;;;12.13;9.03;;;-1.20;99.90;;;;;;5047612;28;20511;-65
2022/02/28 02:13:40;;;;;;;13.70;9.70;;;-1.20;99.90;;;;;;5051838;28;20457;-65
2022/02/28 02:16:07;;;;;;;12.17;9.30;;;-1.20;99.90;;;;;;5051456;28;20475;-65
2022/02/28 02:18:34;;;;;;;13.47;9.73;;;-1.20;99.90;;;;;;5051619;28;20464;-65
2022/02/28 02:21:03;;;;;;;16.97;10.20;;;-1.20;99.90;;;;;;5045023;28;20460;-66
2022/02/28 02:23:30;;;;;;;13.00;10.57;;;-1.30;99.90;;;;;;5045552;28;20456;-65
2022/02/28 02:26:00;;;;;;;12.20;9.03;;;-1.30;99.90;;;;;;5045154;28;20596;-65
2022/02/28 02:28:27;;;;;;;14.77;10.40;;;-1.40;99.90;;;;;;5051791;28;20444;-65
2022/02/28 02:30:56;;;;;;;13.67;9.47;;;-1.40;99.90;;;;;;5051502;28;20925;-65
2022/02/28 02:33:24;;;;;;;17.33;11.03;;;-1.30;99.90;;;;;;5050865;28;20531;-65
2022/02/28 02:35:53;;;;;;;15.93;9.63;;;-1.30;99.90;;;;;;5050188;28;20444;-65
2022/02/28 02:38:22;;;;;;;13.13;9.33;;;-1.30;99.90;;;;;;5051239;28;20448;-65
2022/02/28 02:40:49;;;;;;;18.60;14.93;;;-1.30;99.90;;;;;;5051352;28;20558;-65
2022/02/28 02:43:17;;;;;;;15.20;12.43;;;-1.20;99.90;;;;;;5051026;28;20452;-65
2022/02/28 02:45:44;;;;;;;16.20;12.30;;;-1.30;99.90;;;;;;5054111;28;20490;-65
2022/02/28 02:48:12;;;;;;;13.43;10.80;;;-1.20;99.90;;;;;;5055402;28;20528;-65
2022/02/28 02:50:40;;;;;;;22.23;11.77;;;-1.20;99.90;;;;;;5056352;28;20555;-65
2022/02/28 02:53:07;;;;;;;14.57;10.17;;;-1.30;99.90;;;;;;5055882;28;20455;-65
2022/02/28 02:55:35;;;;;;;14.40;11.17;;;-1.30;99.90;;;;;;5055284;28;20451;-66
2022/02/28 02:58:02;;;;;;;15.13;12.00;;;-1.30;99.90;;;;;;5054447;28;20495;-65
2022/02/28 03:00:29;;;;;;;14.73;10.30;;;-1.40;99.90;;;;;;5053390;28;20470;-65
2022/02/28 03:02:56;;;;;;;14.60;10.30;;;-1.50;99.90;;;;;;5052511;28;20443;-65
2022/02/28 03:05:23;;;;;;;15.63;10.33;;;-1.50;99.90;;;;;;5051913;28;20475;-65
2022/02/28 03:07:50;;;;;;;13.90;9.93;;;-1.60;99.90;;;;;;5049257;28;20974;-65
2022/02/28 03:10:17;;;;;;;15.43;9.97;;;-1.70;99.90;;;;;;5051350;28;20497;-65
2022/02/28 03:12:46;;;;;;;17.60;9.50;;;-1.70;99.90;;;;;;5051742;28;20456;-65
2022/02/28 03:15:12;;;;;;;12.60;9.00;;;-1.70;99.90;;;;;;5050393;28;20539;-65
2022/02/28 03:17:39;;;;;;;16.13;10.10;;;-1.70;99.90;;;;;;5048114;28;20475;-65
2022/02/28 03:20:07;;;;;;;16.47;10.63;;;-1.70;99.90;;;;;;5044914;28;20546;-65
2022/02/28 03:22:34;;;;;;;12.60;10.20;;;-1.80;99.90;;;;;;5046762;28;20448;-65
2022/02/28 03:25:01;;;;;;;13.00;9.57;;;-1.70;99.90;;;;;;5044229;28;20445;-66
2022/02/28 03:27:28;;;;;;;11.83;9.10;;;-1.80;99.90;;;;;;5048950;28;20516;-64
2022/02/28 03:29:56;;;;;;;12.63;9.50;;;-1.70;99.90;;;;;;5050304;28;20985;-65
2022/02/28 03:32:23;;;;;;;14.80;10.13;;;-1.80;99.90;;;;;;5043576;28;20558;-65
2022/02/28 03:34:50;;;;;;;11.50;9.60;;;-1.80;99.90;;;;;;5049989;28;20443;-65
2022/02/28 03:37:17;;;;;;;13.43;9.80;;;-1.80;99.90;;;;;;5049585;28;20894;-65
2022/02/28 03:39:44;;;;;;;13.80;9.93;;;-1.90;99.90;;;;;;5043361;28;20845;-65
2022/02/28 03:42:11;;;;;;;14.00;10.10;;;-2.00;99.90;;;;;;5043284;28;20937;-65
2022/02/28 03:44:38;;;;;;;15.70;10.20;;;-2.00;99.90;;;;;;5049687;28;20898;-65
2022/02/28 03:47:06;;;;;;;16.33;10.50;;;-2.00;99.90;;;;;;5042747;28;20479;-64
2022/02/28 03:49:34;;;;;;;14.67;9.60;;;-2.00;99.90;;;;;;5043834;28;20448;-65
2022/02/28 03:52:01;;;;;;;16.80;11.27;;;-2.00;99.90;;;;;;5049344;28;20942;-65
2022/02/28 03:54:27;;;;;;;14.80;10.47;;;-2.00;99.90;;;;;;5042483;28;20526;-65
2022/02/28 03:56:54;;;;;;;18.33;9.73;;;-2.10;99.90;;;;;;5042907;28;20805;-65
2022/02/28 03:59:21;;;;;;;12.43;9.73;;;-2.10;99.90;;;;;;5049290;28;20448;-65
2022/02/28 04:01:48;;;;;;;13.47;9.57;;;-2.20;99.90;;;;;;5049676;28;20444;-65
2022/02/28 04:04:17;;;;;;;15.23;10.77;;;-2.30;99.90;;;;;;5048561;28;20959;-65
2022/02/28 04:06:46;;;;;;;11.10;8.87;;;-2.30;99.90;;;;;;5042745;28;20492;-65
2022/02/28 04:09:13;;;;;;;12.80;10.07;;;-2.20;99.90;;;;;;5042362;28;20451;-64
2022/02/28 04:11:40;;;;;;;14.73;9.53;;;-2.30;99.90;;;;;;5049411;28;20575;-64
2022/02/28 04:14:07;;;;;;;13.23;9.80;;;-2.40;99.90;;;;;;5048686;28;20452;-64
2022/02/28 04:16:35;;;;;;;12.20;9.17;;;-2.30;99.90;;;;;;5049395;28;20455;-64
2022/02/28 04:19:02;;;;;;;16.17;10.20;;;-2.30;99.90;;;;;;5046396;28;20517;-65
2022/02/28 04:21:30;;;;;;;17.07;10.50;;;-2.40;99.90;;;;;;5042457;28;20916;-64
2022/02/28 04:23:57;;;;;;;14.73;9.53;;;-2.50;99.90;;;;;;5041590;28;20831;-64
2022/02/28 04:26:23;;;;;;;15.63;10.37;;;-2.50;99.90;;;;;;5036904;28;20503;-64
2022/02/28 04:28:50;;;;;;;23.10;11.33;;;-2.40;99.90;;;;;;5048881;28;20985;-64
2022/02/28 04:31:17;;;;;;;14.80;9.97;;;-2.30;99.90;;;;;;5048569;28;20888;-64
2022/02/28 04:33:44;;;;;;;15.30;9.77;;;-2.30;99.90;;;;;;5048622;28;20499;-64
2022/02/28 04:36:11;;;;;;;14.57;10.60;;;-2.40;99.90;;;;;;5047955;28;20435;-64
2022/02/28 04:38:39;;;;;;;16.30;11.67;;;-2.40;99.90;;;;;;5048852;28;20443;-64
2022/02/28 04:41:06;;;;;;;13.17;10.23;;;-2.40;99.90;;;;;;5048543;28;20546;-64
2022/02/28 04:43:33;;;;;;;12.70;9.50;;;-2.40;99.90;;;;;;5048682;28;20452;-65
2022/02/28 04:45:59;;;;;;;15.10;10.03;;;-2.40;99.90;;;;;;5047893;28;20494;-65
2022/02/28 04:48:26;;;;;;;14.23;10.77;;;-2.50;99.90;;;;;;5043870;28;20456;-64
2022/02/28 04:50:55;;;;;;;12.70;10.40;;;-2.50;99.90;;;;;;5030791;28;20461;-66
2022/02/28 04:53:22;;;;;;;16.07;10.63;;;-2.50;99.90;;;;;;5030931;28;20445;-64
2022/02/28 04:55:52;;;;;;;14.93;9.80;;;-2.40;99.90;;;;;;5030689;28;20479;-65
2022/02/28 04:58:19;;;;;;;15.40;10.70;;;-2.20;99.90;;;;;;5030538;28;20445;-64
2022/02/28 05:00:46;;;;;;;12.87;9.40;;;-2.20;99.90;;;;;;5030364;28;20484;-64
2022/02/28 05:03:13;;;;;;;15.60;10.53;;;-2.20;99.90;;;;;;5030621;28;20448;-64
2022/02/28 05:05:39;;;;;;;12.07;8.80;;;-2.20;99.90;;;;;;5030269;28;20449;-64
2022/02/28 05:08:06;;;;;;;15.13;9.67;;;-2.30;99.90;;;;;;5030419;28;20535;-65
2022/02/28 05:10:33;;;;;;;15.73;9.70;;;-2.40;99.90;;;;;;5030315;28;20469;-64
2022/02/28 05:13:02;;;;;;;16.50;9.13;;;-2.50;99.90;;;;;;5030380;28;20445;-64
2022/02/28 05:15:29;;;;;;;16.93;9.60;;;-2.50;99.90;;;;;;5029980;28;20480;-64
2022/02/28 05:17:56;;;;;;;16.23;9.93;;;-2.50;99.90;;;;;;5030191;28;20535;-64
2022/02/28 05:20:23;;;;;;;17.43;10.37;;;-2.50;99.90;;;;;;5030195;28;20801;-65
2022/02/28 05:22:50;;;;;;;16.83;11.50;;;-2.60;99.90;;;;;;5030567;28;20976;-64
2022/02/28 05:25:17;;;;;;;14.07;10.07;;;-2.60;99.90;;;;;;5029979;28;20459;-64
2022/02/28 05:27:45;;;;;;;13.60;10.23;;;-2.50;99.90;;;;;;5030353;28;20476;-65
2022/02/28 05:30:15;;;;;;;14.80;10.00;;;-2.50;99.90;;;;;;5030083;28;20478;-64
2022/02/28 05:32:42;;;;;;;16.00;10.03;;;-2.60;99.90;;;;;;5030463;28;20471;-64
2022/02/28 05:35:10;;;;;;;17.00;10.10;;;-2.60;99.90;;;;;;5030212;28;20532;-64
2022/02/28 05:37:37;;;;;;;13.73;9.80;;;-2.60;99.90;;;;;;5030406;28;20817;-64
2022/02/28 05:40:05;;;;;;;18.30;10.47;;;-2.60;99.90;;;;;;5030201;28;20523;-64
2022/02/28 05:42:42;;;;;;;14.43;10.70;;;-2.60;99.90;;;;;;5030911;28;20444;-66
2022/02/28 05:45:10;;;;;;;16.07;11.40;;;-2.70;99.90;;;;;;5031160;28;21006;-65
2022/02/28 05:47:42;;;;;;;13.73;10.47;;;-2.60;99.90;;;;;;5034298;28;21081;-64
2022/02/28 05:50:10;;;;;;;15.03;9.70;;;-2.50;99.90;;;;;;5033620;28;20476;-64
2022/02/28 05:52:36;;;;;;;23.03;11.93;;;-2.50;99.90;;;;;;5032951;28;20460;-64
2022/02/28 05:55:04;;;;;;;14.43;10.80;;;-2.50;99.90;;;;;;5032973;28;20454;-64
2022/02/28 05:57:35;;;;;;;15.30;10.50;;;-2.60;99.90;;;;;;5033235;28;20447;-64
2022/02/28 06:00:02;;;;;;;19.50;11.63;;;-2.60;99.90;;;;;;5032901;28;20544;-64
2022/02/28 06:02:29;;;;;;;15.30;10.43;;;-2.60;99.90;;;;;;5032817;28;20982;-64
2022/02/28 06:04:57;;;;;;;13.93;9.93;;;-2.60;99.90;;;;;;5032832;28;20652;-64
2022/02/28 06:07:24;;;;;;;14.57;11.27;;;-2.60;99.90;;;;;;5032736;28;20480;-64
2022/02/28 06:09:51;;;;;;;14.40;9.70;;;-2.70;99.90;;;;;;5032663;28;20465;-64
2022/02/28 06:12:17;;;;;;;16.07;10.63;;;-2.80;99.90;;;;;;5032955;28;20453;-64
2022/02/28 06:14:44;;;;;;;17.20;11.37;;;-2.90;99.90;;;;;;5032545;28;20444;-64
2022/02/28 06:17:11;;;;;;;14.27;10.57;;;-3.00;99.90;;;;;;5032493;28;20472;-64
2022/02/28 06:19:38;;;;;;;18.00;12.53;;;-2.90;99.90;;;;;;5032573;28;20532;-64
2022/02/28 06:22:07;;;;;;;16.37;12.00;;;-2.80;99.90;;;;;;5032628;28;20449;-64
2022/02/28 06:24:33;;;;;;;19.93;12.40;;;-2.60;99.90;;;;;;5031441;28;21077;-64
2022/02/28 06:27:00;;;;;;;15.60;11.30;;;-2.50;99.90;;;;;;5032527;28;20490;-64
2022/02/28 06:29:27;;;;;;;18.33;12.13;;;-2.40;99.90;;;;;;5032527;28;20451;-64
2022/02/28 06:31:54;;;;;;;17.23;10.90;;;-2.40;99.90;;;;;;5032676;28;20463;-65
2022/02/28 06:34:21;;;;;;;16.77;11.10;;;-2.40;99.90;;;;;;5032244;28;20495;-64
2022/02/28 06:36:48;;;;;;;15.30;11.00;;;-2.40;99.90;;;;;;5032328;28;20445;-64
2022/02/28 06:39:16;;;;;;;19.63;11.73;;;-2.40;99.90;;;;;;5032248;28;20453;-65
2022/02/28 06:41:43;;;;;;;14.70;11.50;;;-2.30;99.90;;;;;;5032466;28;20476;-62
2022/02/28 06:44:10;;;;;;;18.60;12.53;;;-2.30;99.90;;;;;;5032337;28;20449;-64
2022/02/28 06:46:37;;;;;;;17.00;13.50;;;-2.20;99.90;;;;;;5032380;28;20560;-64
2022/02/28 06:49:03;;;;;;;17.07;11.80;;;-2.20;99.90;;;;;;5032328;28;20455;-64
2022/02/28 06:51:30;;;;;;;16.40;11.63;;;-2.20;99.90;;;;;;5032212;28;20465;-64
2022/02/28 06:53:57;;;;;;;19.50;12.40;;;-2.10;99.90;;;;;;5032439;28;20491;-64
2022/02/28 06:56:25;;;;;;;21.03;12.00;;;-2.10;99.90;;;;;;5032000;28;20449;-64
2022/02/28 06:58:52;;;;;;;20.93;11.33;;;-1.90;99.90;;;;;;5031606;28;20449;-64
2022/02/28 07:01:19;;;;;;;18.25;11.90;;;-1.90;99.90;;;;;;5031849;28;20492;-62
2022/02/28 07:03:46;;;;;;;18.80;12.53;;;-1.70;99.90;;;;;;5031910;28;20338;-65
2022/02/28 07:06:14;;;;;;;17.00;12.20;;;-1.70;99.90;;;;;;5031369;28;20544;-63
2022/02/28 07:08:41;;;;;;;17.10;11.23;;;-1.60;99.90;;;;;;5031615;28;20485;-63
2022/02/28 07:11:08;;;;;;;18.20;11.30;;;-1.50;99.90;;;;;;5031773;28;20473;-63
2022/02/28 07:13:37;;;;;;;18.90;11.13;;;-1.50;99.90;;;;;;5031664;28;21007;-63
2022/02/28 07:16:04;;;;;;;18.47;11.50;;;-1.30;99.90;;;;;;5031393;28;20445;-63
2022/02/28 07:18:31;;;;;;;16.83;11.87;;;-1.20;99.90;;;;;;5031466;28;20544;-63
2022/02/28 07:20:58;;;;;;;21.80;11.77;;;-1.20;99.90;;;;;;5031364;28;20563;-63
2022/02/28 07:23:25;;;;;;;32.33;13.13;;;-1.10;99.90;;;;;;5031507;28;20451;-63
2022/02/28 07:25:51;;;;;;;17.37;11.10;;;-1.00;99.90;;;;;;5031151;28;20449;-63
2022/02/28 07:28:18;;;;;;;17.30;12.50;;;-0.90;99.90;;;;;;5031167;28;20484;-63
2022/02/28 07:30:47;;;;;;;16.30;11.83;;;-0.80;99.90;;;;;;5031302;28;20851;-63
2022/02/28 07:33:13;;;;;;;20.17;11.90;;;-0.70;99.90;;;;;;5031323;28;20455;-63
2022/02/28 07:35:40;;;;;;;15.30;11.03;;;-0.60;99.90;;;;;;5031061;28;20528;-63
2022/02/28 07:38:07;;;;;;;13.70;11.77;;;-0.40;99.90;;;;;;5031350;28;20456;-63
2022/02/28 07:40:34;;;;;;;15.37;11.70;;;-0.40;99.90;;;;;;5030967;28;20487;-63
2022/02/28 07:43:01;;;;;;;16.77;12.37;;;-0.20;99.90;;;;;;5031003;28;20445;-63
2022/02/28 07:45:28;;;;;;;19.43;11.77;;;-0.10;99.90;;;;;;5030656;28;20543;-63
2022/02/28 07:47:56;;;;;;;15.03;11.20;;;0.00;99.90;;;;;;5030773;28;21376;-63
2022/02/28 07:50:23;;;;;;;20.87;11.70;;;0.10;99.90;;;;;;5031008;28;20495;-63
2022/02/28 07:52:50;;;;;;;15.97;11.30;;;0.20;99.90;;;;;;5030993;28;20829;-63
2022/02/28 07:55:17;;;;;;;15.07;11.60;;;0.30;99.90;;;;;;5030660;28;20889;-63
2022/02/28 07:57:44;;;;;;;16.80;11.13;;;0.50;99.90;;;;;;5031000;28;20873;-63
2022/02/28 08:00:11;;;;;;;38.73;13.87;;;0.70;99.90;;;;;;5030810;28;20461;-63
2022/02/28 08:02:39;;;;;;;17.73;11.47;;;0.80;99.90;;;;;;5030494;28;21016;-63
2022/02/28 08:05:08;;;;;;;15.20;12.17;;;0.90;99.90;;;;;;5030650;28;20535;-63
2022/02/28 08:07:39;;;;;;;14.50;11.17;;;1.00;99.90;;;;;;5030477;28;20472;-63
2022/02/28 08:10:07;;;;;;;19.90;13.17;;;1.10;99.90;;;;;;5029721;28;20469;-63
2022/02/28 08:12:34;;;;;;;15.43;11.10;;;1.20;99.90;;;;;;5030419;28;20452;-63
2022/02/28 08:15:01;;;;;;;17.07;11.47;;;1.30;99.90;;;;;;5029231;28;20449;-63
2022/02/28 08:17:28;;;;;;;19.43;11.50;;;1.40;99.90;;;;;;5030444;28;20460;-63
2022/02/28 08:19:55;;;;;;;21.40;13.60;;;1.60;99.90;;;;;;5030453;28;20543;-63
2022/02/28 08:22:23;;;;;;;17.83;12.33;;;1.80;99.90;;;;;;5030509;28;20451;-63
2022/02/28 08:24:50;;;;;;;14.83;11.10;;;1.90;99.90;;;;;;5030144;28;20800;-63
2022/02/28 08:27:17;;;;;;;15.07;11.43;;;2.20;99.90;;;;;;5030418;28;20488;-63
2022/02/28 08:29:44;;;;;;;19.87;12.40;;;2.50;99.90;;;;;;5031488;28;20496;-63
2022/02/28 08:32:10;;;;;;;14.67;10.80;;;2.70;99.90;;;;;;5031388;28;20445;-63
2022/02/28 08:34:37;;;;;;;14.90;11.53;;;2.90;99.90;;;;;;5031952;28;20452;-63
2022/02/28 08:37:05;;;;;;;15.97;12.27;;;3.20;99.90;;;;;;5038956;28;20968;-63
2022/02/28 08:39:33;;;;;;;15.07;11.00;;;3.40;99.90;;;;;;5037795;28;20452;-63
2022/02/28 08:41:59;;;;;;;17.87;11.60;;;3.70;99.90;;;;;;5040249;28;20925;-63
2022/02/28 08:44:27;;;;;;;18.67;12.67;;;3.70;99.90;;;;;;5040569;28;20451;-64
2022/02/28 08:46:53;;;;;;;16.77;11.37;;;3.70;99.90;;;;;;5040744;28;21010;-63
2022/02/28 08:49:20;;;;;;;20.77;12.23;;;3.90;99.90;;;;;;5037426;28;20456;-64
2022/02/28 08:51:47;;;;;;;14.27;12.07;;;3.90;99.90;;;;;;5030827;28;20524;-63
2022/02/28 08:54:15;;;;;;;16.10;11.60;;;3.90;99.90;;;;;;5029575;28;20876;-62
2022/02/28 08:56:43;;;;;;;16.57;12.17;;;4.10;99.90;;;;;;5036390;28;20445;-63
2022/02/28 08:59:10;;;;;;;14.13;10.70;;;4.40;99.90;;;;;;5030895;28;20552;-65
2022/02/28 09:01:37;;;;;;;15.27;11.27;;;4.70;99.90;;;;;;5029710;28;20496;-65
2022/02/28 09:04:04;;;;;;;15.93;11.80;;;5.10;99.90;;;;;;5029629;28;20488;-63
2022/02/28 09:06:31;;;;;;;17.70;11.77;;;5.20;99.90;;;;;;5029788;28;20866;-63
2022/02/28 09:08:58;;;;;;;15.63;11.30;;;5.40;99.90;;;;;;5029609;28;20934;-64
2022/02/28 09:11:25;;;;;;;12.43;10.77;;;5.70;99.90;;;;;;5029735;28;20896;-63
2022/02/28 09:13:53;;;;;;;17.07;12.10;;;6.20;99.90;;;;;;5029941;28;20532;-63
2022/02/28 09:16:21;;;;;;;14.70;12.40;;;6.50;99.90;;;;;;5029642;28;20459;-63
2022/02/28 09:18:48;;;;;;;13.07;11.50;;;6.40;99.90;;;;;;5029778;28;20476;-64
2022/02/28 09:21:14;;;;;;;16.33;11.80;;;6.50;99.90;;;;;;5031467;28;20992;-64
2022/02/28 09:23:41;;;;;;;16.93;12.90;;;6.90;99.90;;;;;;5033510;28;20440;-64
2022/02/28 09:26:08;;;;;;;14.70;11.60;;;7.10;99.90;;;;;;5033623;28;20536;-64
2022/02/28 09:28:35;;;;;;;14.97;11.93;;;7.40;99.90;;;;;;5033678;28;20578;-64
2022/02/28 09:31:04;;;;;;;14.70;10.93;;;7.50;99.90;;;;;;5033636;28;20982;-65
2022/02/28 09:33:31;;;;;;;14.73;12.00;;;7.80;99.90;;;;;;5033587;28;20444;-64
2022/02/28 09:35:58;;;;;;;14.07;12.00;;;8.20;99.90;;;;;;5033280;28;20493;-65
2022/02/28 09:38:25;;;;;;;15.80;11.97;;;8.20;98.70;;;;;;5033319;28;20441;-64
2022/02/28 09:40:53;;;;;;;13.10;10.87;;;8.10;99.30;;;;;;5033598;28;20460;-65
2022/02/28 09:43:21;;;;;;;13.83;11.50;;;8.30;99.10;;;;;;5033174;28;20958;-64
2022/02/28 09:45:48;;;;;;;14.47;11.20;;;8.40;99.10;;;;;;5032709;28;20455;-63
2022/02/28 09:48:17;;;;;;;14.73;11.53;;;8.50;97.70;;;;;;5036147;28;20480;-63
2022/02/28 09:50:44;;;;;;;12.77;10.20;;;8.80;97.50;;;;;;5038860;28;20465;-64
2022/02/28 09:53:11;;;;;;;13.00;10.23;;;9.00;97.00;;;;;;5042830;28;20451;-64
2022/02/28 09:55:38;;;;;;;12.93;10.20;;;9.50;96.80;;;;;;5037061;28;20475;-64
2022/02/28 09:58:05;;;;;;;11.97;10.73;;;9.50;95.80;;;;;;5045968;28;20464;-64
2022/02/28 10:00:32;;;;;;;12.60;10.70;;;10.00;94.60;;;;;;5044291;28;20468;-66
2022/02/28 10:03:03;;;;;;;13.60;10.90;;;10.30;94.10;;;;;;5051974;28;20443;-65
2022/02/28 10:05:31;;;;;;;12.27;10.87;;;10.80;92.70;;;;;;5037374;28;20547;-65
2022/02/28 10:08:00;;;;;;;12.40;11.10;;;11.10;92.00;;;;;;5046740;28;20484;-66
2022/02/28 10:10:28;;;;;;;13.20;11.60;;;11.40;91.10;;;;;;5042843;28;20476;-65
2022/02/28 10:12:56;;;;;;;16.37;11.40;;;11.30;90.10;;;;;;5040499;28;20858;-66
2022/02/28 10:15:24;;;;;;;14.43;10.60;;;11.40;90.40;;;;;;5039485;28;20851;-66
2022/02/28 10:17:54;;;;;;;14.83;10.87;;;11.50;90.20;;;;;;5043648;28;20937;-66
2022/02/28 10:20:23;;;;;;;13.17;11.77;;;12.00;89.40;;;;;;5045412;28;20469;-66
2022/02/28 10:22:57;;;;;;;15.43;10.70;;;12.30;87.30;;;;;;5032428;28;20939;-66
2022/02/28 10:25:34;;;;;;;13.20;10.80;;;12.10;88.60;;;;;;5031369;28;20520;-65
2022/02/28 10:28:08;;;;;;;14.90;12.60;;;12.50;86.10;;;;;;5038282;28;20475;-66
2022/02/28 10:30:36;;;;;;;14.20;12.67;;;12.70;85.40;;;;;;5038047;28;20460;-65
2022/02/28 10:33:08;;;;;;;12.13;10.90;;;12.50;83.80;;;;;;5037327;28;20445;-65
2022/02/28 10:38:27;;;;;;;12.77;11.40;;;12.70;85.20;;;;;;5039201;28;20423;-66
2022/02/28 10:40:54;;;;;;;19.70;10.67;;;13.00;83.90;;;;;;5045899;28;20498;-65
2022/02/28 10:43:26;;;;;;;15.40;11.73;;;13.20;82.90;;;;;;5039056;28;20539;-65
2022/02/28 10:45:53;;;;;;;14.70;11.27;;;13.50;81.10;;;;;;5034964;28;20452;-66
2022/02/28 10:48:21;;;;;;;12.57;11.23;;;14.00;80.60;;;;;;5035601;28;20576;-65
2022/02/28 10:50:48;;;;;;;16.10;12.30;;;14.30;78.80;;;;;;5038539;28;20559;-65
2022/02/28 10:53:17;;;;;;;16.13;11.93;;;14.40;77.90;;;;;;5037047;28;21009;-66
2022/02/28 10:55:47;;;;;;;14.80;12.63;;;14.30;76.70;;;;;;5038919;28;20441;-66
2022/02/28 10:58:21;;;;;;;12.80;10.60;;;14.40;76.70;;;;;;5039626;28;20536;-66
2022/02/28 11:00:56;;;;;;;20.43;11.43;;;14.30;74.60;;;;;;5034122;28;20468;-67
2022/02/28 11:03:23;;;;;;;14.87;11.00;;;14.40;75.30;;;;;;5041488;28;20450;-68
2022/02/28 11:05:55;;;;;;;11.50;9.83;;;14.50;75.10;;;;;;5036059;28;20445;-67
2022/02/28 11:08:23;;;;;;;16.90;10.37;;;14.90;76.30;;;;;;5040700;28;20491;-68
2022/02/28 11:10:53;;;;;;;14.80;10.60;;;15.40;72.30;;;;;;5038346;28;20472;-66
2022/02/28 11:13:22;;;;;;;21.57;10.83;;;15.50;71.20;;;;;;5042090;28;20544;-66
2022/02/28 11:15:49;;;;;;;16.10;11.70;;;15.20;70.40;;;;;;5042523;28;20830;-65
2022/02/28 11:18:20;;;;;;;16.80;10.13;;;15.10;69.50;;;;;;5045799;28;20448;-66
2022/02/28 11:20:48;;;;;;;11.47;9.50;;;15.40;70.20;;;;;;5044019;28;20872;-66
2022/02/28 11:23:18;;;;;;;13.53;11.20;;;16.10;68.30;;;;;;5041995;28;20480;-67
2022/02/28 11:25:46;;;;;;;14.13;10.93;;;16.50;65.50;;;;;;5038225;28;20539;-66
2022/02/28 11:28:14;;;;;;;10.40;9.23;;;16.60;64.90;;;;;;5046259;28;20521;-65
2022/02/28 11:30:42;;;;;;;11.77;10.37;;;17.10;64.30;;;;;;5043644;28;20999;-66
2022/02/28 11:33:10;;;;;;;11.60;9.27;;;16.60;62.90;;;;;;5043844;28;20456;-65
2022/02/28 11:35:50;;;;;;;11.53;10.33;;;16.30;62.50;;;;;;5043264;28;20483;-65
2022/02/28 11:38:45;;;;;;;13.23;11.87;;;16.10;62.90;;;;;;5041530;28;20544;-66
2022/02/28 11:41:14;;;;;;;10.70;9.57;;;16.30;60.70;;;;;;5040095;28;20471;-67
2022/02/28 11:43:46;;;;;;;12.83;11.10;;;17.20;60.80;;;;;;5045309;28;20456;-66
2022/02/28 11:46:15;;;;;;;12.83;11.10;;;17.80;58.00;;;;;;5013322;28;20440;-66
2022/02/28 11:48:45;;;;;;;12.63;11.07;;;18.30;57.50;;;;;;5041433;28;20475;-66
2022/02/28 11:51:23;;;;;;;10.93;9.60;;;18.20;58.30;;;;;;5042701;28;21007;-66
2022/02/28 11:53:52;;;;;;;11.90;10.13;;;17.90;57.40;;;;;;5038596;28;20471;-66
2022/02/28 11:56:55;;;;;;;12.57;10.53;;;17.60;56.60;;;;;;5039955;28;20531;-66
2022/02/28 11:59:32;;;;;;;12.27;10.97;;;18.20;55.00;;;;;;5035861;28;20445;-66
2022/02/28 12:02:02;;;;;;;12.70;10.97;;;17.80;55.70;;;;;;5034271;28;20476;-66
2022/02/28 12:04:40;;;;;;;14.07;10.67;;;18.20;55.80;;;;;;5039699;28;20455;-66
2022/02/28 12:07:23;;;;;;;12.13;10.93;;;18.40;56.40;;;;;;5043745;28;20447;-66
2022/02/28 12:09:50;;;;;;;11.47;10.30;;;18.60;55.90;;;;;;5040932;28;20869;-66
2022/02/28 12:12:23;;;;;;;12.37;10.57;;;18.90;54.80;;;;;;5035204;28;20456;-67
2022/02/28 12:15:24;;;;;;;11.80;10.70;;;20.00;53.70;;;;;;5033559;28;20519;-66
2022/02/28 12:17:57;;;;;;;12.77;11.47;;;20.50;51.60;;;;;;5038374;28;21146;-67
2022/02/28 12:20:26;;;;;;;12.57;10.40;;;20.60;51.50;;;;;;5040749;28;20971;-65
2022/02/28 12:23:15;;;;;;;12.57;11.27;;;21.50;50.00;;;;;;5037296;28;20460;-66
2022/02/28 12:25:44;;;;;;;11.50;10.30;;;21.20;48.90;;;;;;5037496;28;20970;-66
2022/02/28 12:28:24;;;;;;;12.90;10.50;;;20.80;50.70;;;;;;5040953;28;20454;-66
2022/02/28 12:30:55;;;;;;;11.70;10.50;;;20.40;48.90;;;;;;5038124;28;20535;-67
2022/02/28 12:33:26;;;;;;;12.20;10.97;;;20.20;49.30;;;;;;5038302;28;20938;-65
2022/02/28 12:36:06;;;;;;;11.70;9.93;;;20.50;49.20;;;;;;5036856;28;20880;-66
2022/02/28 12:38:35;;;;;;;10.67;9.57;;;20.70;48.00;;;;;;5035138;28;20455;-65
2022/02/28 12:41:03;;;;;;;14.80;8.93;;;21.30;47.00;;;;;;5046197;28;20973;-66